Time;durP1;ratioP1;P1;durP2;ratioP2;P2;SDS_P1;SDS_P2;PMS_P1;PMS_P2;Temp;Humidity;BMP_temperature;BMP_pressure;BME280_temperature;BME280_humidity;BME280_pressure;Samples;Min_cycle;Max_cycle;Signal;HPM_P1;HPM_P2
2022/09/03 00:02:45;;;;;;;3.17;2.27;;;;;;;;;;4885072;29;20743;-41
2022/09/03 00:05:20;;;;;;;3.53;2.63;;;;;;;;;;4898171;28;20177;-41
2022/09/03 00:08:01;;;;;;;4.70;2.37;;;;;;;;;;4880192;29;20184;-42
2022/09/03 00:10:43;;;;;;;2.63;2.20;;;;;;;;;;4884035;29;20673;-42
2022/09/03 00:13:12;;;;;;;4.47;2.43;;;;;;;;;;4890420;28;20215;-42
2022/09/03 00:15:39;;;;;;;4.00;2.40;;;;;;;;;;4886915;28;20830;-42
2022/09/03 00:18:12;;;;;;;3.33;2.30;;;;;;;;;;4886371;29;20636;-42
2022/09/03 00:20:43;;;;;;;5.80;2.77;;;;;;;;;;4887085;29;20184;-42
2022/09/03 00:23:19;;;;;;;6.20;2.50;;;;;;;;;;4887164;29;20388;-41
2022/09/03 00:25:45;;;;;;;4.30;2.40;;;;;;;;;;4884195;29;20187;-42
2022/09/03 00:28:14;;;;;;;3.87;2.40;;;;;;;;;;4885591;29;20184;-42
2022/09/03 00:30:41;;;;;;;4.50;2.37;;;;;;;;;;4884418;29;21173;-41
2022/09/03 00:33:11;;;;;;;4.50;2.87;;;;;;;;;;4887393;28;20515;-41
2022/09/03 00:35:46;;;;;;;4.40;2.67;;;;;;;;;;4885370;29;20381;-42
2022/09/03 00:38:12;;;;;;;3.90;2.67;;;;;;;;;;4886834;28;20449;-42
2022/09/03 00:40:56;;;;;;;3.23;2.27;;;;;;;;;;4884252;29;20184;-42
2022/09/03 00:43:37;;;;;;;4.40;2.30;;;;;;;;;;4887345;29;20740;-41
2022/09/03 00:46:21;;;;;;;5.73;2.63;;;;;;;;;;4887453;29;20184;-42
2022/09/03 00:48:57;;;;;;;4.73;2.60;;;;;;;;;;4888789;29;20428;-41
2022/09/03 00:51:27;;;;;;;4.67;2.53;;;;;;;;;;4886506;29;20392;-42
2022/09/03 00:53:53;;;;;;;5.27;2.60;;;;;;;;;;4883875;28;20266;-41
2022/09/03 00:56:42;;;;;;;3.57;2.80;;;;;;;;;;4891095;29;20196;-42
2022/09/03 00:59:14;;;;;;;3.37;2.47;;;;;;;;;;4894270;28;20192;-42
2022/09/03 01:01:50;;;;;;;4.90;2.73;;;;;;;;;;4891660;29;20263;-42
2022/09/03 01:04:20;;;;;;;6.20;2.53;;;;;;;;;;4889012;29;20190;-42
2022/09/03 01:07:05;;;;;;;6.37;3.43;;;;;;;;;;4887700;29;20188;-41
2022/09/03 01:09:40;;;;;;;4.93;2.90;;;;;;;;;;4888055;29;20266;-42
2022/09/03 01:12:18;;;;;;;6.40;3.43;;;;;;;;;;4893333;29;20504;-41
2022/09/03 01:15:02;;;;;;;3.30;3.00;;;;;;;;;;4888928;29;20743;-42
2022/09/03 01:17:31;;;;;;;5.47;2.80;;;;;;;;;;4889317;29;20425;-42
2022/09/03 01:20:19;;;;;;;6.57;3.30;;;;;;;;;;4889633;29;20188;-41
2022/09/03 01:22:48;;;;;;;4.87;2.90;;;;;;;;;;4889258;29;20947;-42
2022/09/03 01:25:33;;;;;;;3.50;3.10;;;;;;;;;;4886901;29;20727;-42
2022/09/03 01:28:00;;;;;;;5.27;3.10;;;;;;;;;;4890331;29;20280;-41
2022/09/03 01:30:28;;;;;;;4.80;3.23;;;;;;;;;;4889205;29;20505;-42
2022/09/03 01:33:04;;;;;;;6.50;3.20;;;;;;;;;;4887677;29;20184;-42
2022/09/03 01:35:30;;;;;;;6.37;3.70;;;;;;;;;;4886929;29;20203;-42
2022/09/03 01:38:25;;;;;;;6.00;3.10;;;;;;;;;;4889616;29;20966;-41
2022/09/03 01:43:53;;;;;;;3.50;2.60;;;;;;;;;;4887657;29;20214;-42
2022/09/03 01:46:23;;;;;;;4.67;3.30;;;;;;;;;;4889577;29;20270;-40
2022/09/03 01:48:49;;;;;;;3.27;2.90;;;;;;;;;;4888908;29;20236;-42
2022/09/03 01:51:20;;;;;;;6.60;3.30;;;;;;;;;;4885303;29;20632;-42
2022/09/03 01:53:46;;;;;;;6.77;2.97;;;;;;;;;;4886943;29;20391;-42
2022/09/03 01:56:35;;;;;;;3.40;3.00;;;;;;;;;;4888418;29;20250;-41
2022/09/03 01:59:06;;;;;;;3.40;3.07;;;;;;;;;;4906558;28;20212;-42
2022/09/03 02:01:55;;;;;;;3.90;3.40;;;;;;;;;;4886547;29;20180;-41
2022/09/03 02:04:23;;;;;;;5.87;3.63;;;;;;;;;;4886245;29;20589;-42
2022/09/03 02:06:50;;;;;;;3.90;3.50;;;;;;;;;;4887958;29;20655;-42
2022/09/03 02:09:17;;;;;;;6.30;3.87;;;;;;;;;;4884600;29;20212;-41
2022/09/03 02:11:45;;;;;;;5.03;4.50;;;;;;;;;;4889661;29;20184;-41
2022/09/03 02:14:12;;;;;;;8.47;4.93;;;;;;;;;;4886410;29;20212;-42
2022/09/03 02:16:38;;;;;;;5.73;4.90;;;;;;;;;;4885498;29;20760;-41
2022/09/03 02:19:06;;;;;;;10.53;6.47;;;;;;;;;;4889456;29;20501;-41
2022/09/03 02:21:35;;;;;;;7.27;4.60;;;;;;;;;;4882547;29;20184;-42
2022/09/03 02:24:02;;;;;;;8.23;4.50;;;;;;;;;;4886808;29;20909;-41
2022/09/03 02:26:29;;;;;;;6.33;3.80;;;;;;;;;;4889128;29;20661;-42
2022/09/03 02:28:55;;;;;;;5.83;4.47;;;;;;;;;;4888672;29;20215;-41
2022/09/03 02:31:21;;;;;;;7.63;5.27;;;;;;;;;;4887939;29;20394;-42
2022/09/03 02:33:48;;;;;;;6.83;6.13;;;;;;;;;;4888298;29;20254;-41
2022/09/03 02:36:16;;;;;;;8.07;7.20;;;;;;;;;;4887206;29;20645;-40
2022/09/03 02:38:42;;;;;;;9.67;6.03;;;;;;;;;;4885314;29;20187;-42
2022/09/03 02:41:12;;;;;;;7.80;4.67;;;;;;;;;;4886543;29;20269;-42
2022/09/03 02:43:40;;;;;;;6.03;5.13;;;;;;;;;;4890755;29;20873;-41
2022/09/03 02:46:08;;;;;;;6.80;4.90;;;;;;;;;;4897342;28;21105;-42
2022/09/03 02:48:34;;;;;;;6.27;5.10;;;;;;;;;;4884308;29;21025;-42
2022/09/03 02:51:01;;;;;;;6.40;5.73;;;;;;;;;;4881215;28;20188;-42
2022/09/03 02:53:27;;;;;;;5.77;5.03;;;;;;;;;;4884637;29;20835;-41
2022/09/03 02:55:57;;;;;;;8.20;5.83;;;;;;;;;;4884367;28;20339;-42
2022/09/03 02:58:23;;;;;;;5.97;5.30;;;;;;;;;;4884247;29;20187;-42
2022/09/03 03:00:50;;;;;;;6.20;5.10;;;;;;;;;;4883569;29;20180;-41
2022/09/03 03:03:16;;;;;;;6.97;5.17;;;;;;;;;;4886287;29;20200;-41
2022/09/03 03:05:42;;;;;;;9.17;5.70;;;;;;;;;;4883029;29;20394;-42
2022/09/03 03:08:08;;;;;;;5.43;4.80;;;;;;;;;;4879416;29;20601;-42
2022/09/03 03:10:34;;;;;;;6.10;5.47;;;;;;;;;;4880158;29;20215;-42
2022/09/03 03:13:00;;;;;;;5.70;4.60;;;;;;;;;;4882727;29;20972;-42
2022/09/03 03:15:27;;;;;;;7.33;5.20;;;;;;;;;;4885476;29;20179;-42
2022/09/03 03:17:56;;;;;;;7.13;5.80;;;;;;;;;;4884999;29;20192;-40
2022/09/03 03:20:22;;;;;;;7.90;5.47;;;;;;;;;;4887131;29;20462;-42
2022/09/03 03:22:48;;;;;;;5.87;4.93;;;;;;;;;;4889840;29;20290;-41
2022/09/03 03:25:14;;;;;;;10.23;6.73;;;;;;;;;;4884374;29;20211;-42
2022/09/03 03:27:41;;;;;;;5.90;5.30;;;;;;;;;;4883220;29;20204;-42
2022/09/03 03:30:08;;;;;;;10.00;5.97;;;;;;;;;;4885181;29;20229;-40
2022/09/03 03:32:35;;;;;;;7.67;6.00;;;;;;;;;;4889242;29;20835;-42
2022/09/03 03:35:01;;;;;;;7.70;5.60;;;;;;;;;;4889209;29;20213;-42
2022/09/03 03:37:27;;;;;;;9.73;6.33;;;;;;;;;;4883824;29;21091;-41
2022/09/03 03:39:53;;;;;;;6.97;6.27;;;;;;;;;;4880977;29;20351;-42
2022/09/03 03:42:19;;;;;;;8.30;6.67;;;;;;;;;;4887446;29;21323;-40
2022/09/03 03:44:45;;;;;;;10.53;7.57;;;;;;;;;;4888679;29;20550;-42
2022/09/03 03:47:11;;;;;;;12.80;7.87;;;;;;;;;;4883915;29;20184;-41
2022/09/03 03:49:37;;;;;;;9.10;8.10;;;;;;;;;;4881594;29;20271;-41
2022/09/03 03:52:03;;;;;;;10.13;8.30;;;;;;;;;;4882134;29;20246;-40
2022/09/03 03:54:30;;;;;;;9.53;8.53;;;;;;;;;;4879291;29;20185;-42
2022/09/03 03:56:56;;;;;;;10.80;9.00;;;;;;;;;;4885693;29;20235;-41
2022/09/03 03:59:22;;;;;;;14.23;8.97;;;;;;;;;;4879684;29;21115;-41
2022/09/03 04:01:49;;;;;;;19.60;10.50;;;;;;;;;;4884439;29;20177;-42
2022/09/03 04:04:15;;;;;;;16.63;9.73;;;;;;;;;;4884348;29;20263;-42
2022/09/03 04:06:42;;;;;;;19.97;11.40;;;;;;;;;;4885603;29;20618;-41
2022/09/03 04:09:08;;;;;;;24.47;10.77;;;;;;;;;;4882687;29;20666;-42
2022/09/03 04:11:34;;;;;;;14.63;9.57;;;;;;;;;;4880175;29;20594;-41
2022/09/03 04:14:02;;;;;;;17.10;10.67;;;;;;;;;;4884204;29;20226;-41
2022/09/03 04:16:28;;;;;;;26.13;12.30;;;;;;;;;;4885178;29;20371;-41
2022/09/03 04:18:55;;;;;;;12.07;9.47;;;;;;;;;;4884223;29;20674;-41
2022/09/03 04:21:31;;;;;;;27.73;10.70;;;;;;;;;;4884044;29;20610;-42
2022/09/03 04:23:57;;;;;;;16.67;9.77;;;;;;;;;;4878787;28;20203;-41
2022/09/03 04:26:26;;;;;;;13.87;9.33;;;;;;;;;;4884633;28;20191;-41
2022/09/03 04:28:52;;;;;;;11.70;8.87;;;;;;;;;;4885956;29;20665;-41
2022/09/03 04:31:19;;;;;;;10.10;8.13;;;;;;;;;;4880782;29;20276;-42
2022/09/03 04:33:46;;;;;;;10.00;8.50;;;;;;;;;;4890738;29;20189;-41
2022/09/03 04:36:16;;;;;;;10.27;8.83;;;;;;;;;;4887898;29;20652;-42
2022/09/03 04:38:43;;;;;;;11.03;8.63;;;;;;;;;;4889500;29;20180;-41
2022/09/03 04:41:10;;;;;;;9.23;8.33;;;;;;;;;;4887711;29;20502;-40
2022/09/03 04:43:36;;;;;;;10.97;8.37;;;;;;;;;;4881622;29;20614;-42
2022/09/03 04:46:03;;;;;;;9.27;8.33;;;;;;;;;;4887107;29;20191;-40
2022/09/03 04:48:30;;;;;;;9.23;8.20;;;;;;;;;;4889188;29;20288;-40
2022/09/03 04:51:16;;;;;;;10.77;8.80;;;;;;;;;;4888119;29;20208;-41
2022/09/03 04:53:44;;;;;;;9.10;8.20;;;;;;;;;;4888637;29;20616;-41
2022/09/03 04:56:20;;;;;;;7.97;7.17;;;;;;;;;;4882646;28;20636;-41
2022/09/03 04:58:47;;;;;;;8.70;7.63;;;;;;;;;;4886797;29;20651;-41
2022/09/03 05:01:17;;;;;;;10.33;7.87;;;;;;;;;;4891077;29;20176;-42
2022/09/03 05:03:44;;;;;;;11.07;7.83;;;;;;;;;;4886170;29;20294;-42
2022/09/03 05:06:10;;;;;;;9.43;7.73;;;;;;;;;;4882939;29;20216;-42
2022/09/03 05:08:37;;;;;;;8.03;7.23;;;;;;;;;;4884999;29;20184;-41
2022/09/03 05:11:04;;;;;;;9.20;7.60;;;;;;;;;;4886301;29;20709;-40
2022/09/03 05:13:30;;;;;;;10.57;7.47;;;;;;;;;;4891560;29;20790;-41
2022/09/03 05:16:00;;;;;;;10.03;7.00;;;;;;;;;;4890282;29;20215;-40
2022/09/03 05:18:27;;;;;;;7.97;6.33;;;;;;;;;;4885540;29;20180;-40
2022/09/03 05:20:59;;;;;;;9.27;7.20;;;;;;;;;;4885258;29;20581;-41
2022/09/03 05:23:26;;;;;;;10.47;7.87;;;;;;;;;;4891472;29;20856;-41
2022/09/03 05:25:57;;;;;;;10.93;7.60;;;;;;;;;;4889616;29;20177;-41
2022/09/03 05:28:23;;;;;;;8.00;7.20;;;;;;;;;;4886695;28;21165;-42
2022/09/03 05:30:57;;;;;;;8.67;7.53;;;;;;;;;;4887248;29;20287;-41
2022/09/03 05:33:24;;;;;;;10.67;6.80;;;;;;;;;;4889527;29;20300;-42
2022/09/03 05:35:50;;;;;;;8.00;7.10;;;;;;;;;;4888822;29;20559;-42
2022/09/03 05:38:16;;;;;;;8.13;7.33;;;;;;;;;;4885081;29;20385;-42
2022/09/03 05:40:43;;;;;;;9.40;7.17;;;;;;;;;;4886657;29;20185;-41
2022/09/03 05:43:09;;;;;;;8.90;7.63;;;;;;;;;;4895074;29;20200;-40
2022/09/03 05:45:35;;;;;;;8.57;7.03;;;;;;;;;;4893187;29;20632;-41
2022/09/03 05:48:02;;;;;;;9.07;8.10;;;;;;;;;;4897614;29;20669;-41
2022/09/03 05:50:28;;;;;;;8.27;7.10;;;;;;;;;;4897831;29;20677;-40
2022/09/03 05:52:54;;;;;;;8.93;8.03;;;;;;;;;;4895853;28;20768;-42
2022/09/03 05:55:20;;;;;;;12.10;7.50;;;;;;;;;;4893762;29;20653;-42
2022/09/03 05:57:51;;;;;;;9.37;7.80;;;;;;;;;;4898307;29;20204;-40
2022/09/03 06:00:18;;;;;;;8.47;7.40;;;;;;;;;;4894517;29;20610;-42
2022/09/03 06:02:50;;;;;;;9.47;8.37;;;;;;;;;;4892441;29;20282;-40
2022/09/03 06:05:17;;;;;;;11.03;8.33;;;;;;;;;;4895630;29;20715;-42
2022/09/03 06:07:43;;;;;;;10.10;8.20;;;;;;;;;;4891880;29;20192;-41
2022/09/03 06:10:11;;;;;;;8.50;7.60;;;;;;;;;;4892389;29;20701;-40
2022/09/03 06:12:37;;;;;;;9.97;7.23;;;;;;;;;;4905024;28;20295;-42
2022/09/03 06:15:04;;;;;;;8.43;7.53;;;;;;;;;;4893589;29;20176;-42
2022/09/03 06:17:31;;;;;;;9.30;8.30;;;;;;;;;;4893627;29;20547;-40
2022/09/03 06:19:57;;;;;;;11.07;8.10;;;;;;;;;;4897059;29;20180;-40
2022/09/03 06:22:24;;;;;;;11.27;8.30;;;;;;;;;;4896216;29;20594;-42
2022/09/03 06:24:50;;;;;;;8.27;7.47;;;;;;;;;;4894714;29;20192;-41
2022/09/03 06:27:16;;;;;;;10.07;7.90;;;;;;;;;;4902940;28;20188;-42
2022/09/03 06:29:43;;;;;;;8.33;7.50;;;;;;;;;;4893508;29;20448;-40
2022/09/03 06:32:09;;;;;;;9.17;7.27;;;;;;;;;;4898970;29;20307;-42
2022/09/03 06:34:35;;;;;;;9.77;6.80;;;;;;;;;;4894038;29;20189;-41
2022/09/03 06:37:01;;;;;;;10.43;7.13;;;;;;;;;;4892258;29;20291;-42
2022/09/03 06:39:27;;;;;;;12.47;7.20;;;;;;;;;;4893978;29;20263;-40
2022/09/03 06:41:53;;;;;;;8.57;7.00;;;;;;;;;;4896805;29;20190;-41
2022/09/03 06:44:20;;;;;;;8.13;7.30;;;;;;;;;;4892232;29;20184;-42
2022/09/03 06:46:47;;;;;;;7.50;6.63;;;;;;;;;;4892631;29;20227;-40
2022/09/03 06:49:13;;;;;;;7.80;6.30;;;;;;;;;;4890836;29;20395;-40
2022/09/03 06:51:42;;;;;;;7.33;6.60;;;;;;;;;;4895067;28;20287;-41
2022/09/03 06:54:09;;;;;;;10.47;6.63;;;;;;;;;;4895652;28;20693;-41
2022/09/03 06:56:36;;;;;;;9.03;6.93;;;;;;;;;;4889690;29;20247;-42
2022/09/03 06:59:20;;;;;;;8.57;7.23;;;;;;;;;;4881858;29;20750;-42
2022/09/03 07:01:46;;;;;;;8.13;6.90;;;;;;;;;;4895471;29;20617;-40
2022/09/03 07:04:15;;;;;;;9.73;6.23;;;;;;;;;;4894769;29;20542;-42
2022/09/03 07:06:41;;;;;;;7.70;6.30;;;;;;;;;;4891606;29;20689;-42
2022/09/03 07:09:08;;;;;;;8.80;5.57;;;;;;;;;;4896218;29;20188;-42
2022/09/03 07:11:35;;;;;;;8.03;5.30;;;;;;;;;;4896136;29;20188;-42
2022/09/03 07:14:02;;;;;;;7.67;6.40;;;;;;;;;;4895148;29;20295;-42
2022/09/03 07:16:29;;;;;;;6.40;5.70;;;;;;;;;;4890131;29;20203;-42
2022/09/03 07:18:56;;;;;;;8.40;5.87;;;;;;;;;;4891444;29;20192;-42
2022/09/03 07:21:25;;;;;;;6.83;5.90;;;;;;;;;;4895578;29;20207;-42
2022/09/03 07:23:52;;;;;;;10.13;6.30;;;;;;;;;;4895242;28;20556;-42
2022/09/03 07:26:19;;;;;;;7.33;5.90;;;;;;;;;;4890239;29;20845;-42
2022/09/03 07:28:46;;;;;;;12.13;6.33;;;;;;;;;;4893143;29;20469;-42
2022/09/03 07:31:20;;;;;;;9.80;6.40;;;;;;;;;;4893952;29;20179;-42
2022/09/03 07:33:46;;;;;;;8.50;7.37;;;;;;;;;;4891907;29;20196;-41
2022/09/03 07:36:14;;;;;;;8.77;6.90;;;;;;;;;;4893176;29;20203;-41
2022/09/03 07:38:42;;;;;;;11.87;7.77;;;;;;;;;;4895112;28;20203;-42
2022/09/03 07:41:09;;;;;;;8.33;6.93;;;;;;;;;;4890206;29;20192;-42
2022/09/03 07:43:36;;;;;;;10.07;6.50;;;;;;;;;;4893304;29;20665;-42
2022/09/03 07:46:02;;;;;;;7.57;6.63;;;;;;;;;;4891116;29;20184;-42
2022/09/03 07:48:28;;;;;;;10.07;6.57;;;;;;;;;;4893947;29;20333;-42
2022/09/03 07:51:00;;;;;;;9.23;7.13;;;;;;;;;;4892558;29;20893;-42
2022/09/03 07:53:27;;;;;;;10.27;7.27;;;;;;;;;;4894763;29;20273;-42
2022/09/03 07:55:53;;;;;;;10.60;7.30;;;;;;;;;;4893416;29;20767;-42
2022/09/03 07:58:22;;;;;;;7.30;6.60;;;;;;;;;;4892234;29;20187;-42
2022/09/03 08:00:48;;;;;;;9.67;7.17;;;;;;;;;;4889272;29;20849;-42
2022/09/03 08:03:15;;;;;;;6.63;6.03;;;;;;;;;;4892567;29;20176;-43
2022/09/03 08:05:41;;;;;;;7.90;6.10;;;;;;;;;;4898366;29;20254;-43
2022/09/03 08:08:08;;;;;;;7.67;5.60;;;;;;;;;;4894634;29;20236;-43
2022/09/03 08:10:34;;;;;;;8.53;6.03;;;;;;;;;;4895608;29;20218;-43
2022/09/03 08:13:04;;;;;;;6.23;5.63;;;;;;;;;;4889544;29;20236;-43
2022/09/03 08:15:30;;;;;;;8.73;5.80;;;;;;;;;;4887638;29;20397;-43
2022/09/03 08:17:57;;;;;;;6.37;5.40;;;;;;;;;;4887586;28;20210;-42
2022/09/03 08:20:24;;;;;;;6.73;4.97;;;;;;;;;;4889603;29;20176;-42
2022/09/03 08:22:50;;;;;;;9.10;4.30;;;;;;;;;;4892563;29;20649;-43
2022/09/03 08:25:16;;;;;;;7.27;5.23;;;;;;;;;;4894890;29;20184;-43
2022/09/03 08:27:42;;;;;;;8.87;5.60;;;;;;;;;;4894741;29;20643;-43
2022/09/03 08:30:10;;;;;;;7.23;5.13;;;;;;;;;;4896018;29;20713;-43
2022/09/03 08:32:37;;;;;;;9.33;5.07;;;;;;;;;;4900501;29;20212;-41
2022/09/03 08:35:03;;;;;;;7.17;5.37;;;;;;;;;;4901621;29;20195;-43
2022/09/03 08:37:31;;;;;;;6.73;4.80;;;;;;;;;;4897456;29;20204;-43
2022/09/03 08:39:59;;;;;;;7.50;4.63;;;;;;;;;;4898064;29;20626;-43
2022/09/03 08:42:25;;;;;;;6.97;4.17;;;;;;;;;;4897938;29;20737;-42
2022/09/03 08:44:56;;;;;;;6.77;4.60;;;;;;;;;;4894837;29;20986;-43
2022/09/03 08:47:25;;;;;;;4.77;3.90;;;;;;;;;;4900721;28;20820;-43
2022/09/03 08:50:01;;;;;;;4.83;4.33;;;;;;;;;;4885817;29;20188;-43
2022/09/03 08:52:48;;;;;;;6.87;4.13;;;;;;;;;;4880236;29;20250;-42
2022/09/03 08:55:26;;;;;;;7.07;4.60;;;;;;;;;;4885312;29;20177;-43
2022/09/03 08:57:57;;;;;;;4.43;3.80;;;;;;;;;;4888656;29;20484;-42
2022/09/03 09:00:23;;;;;;;4.30;3.80;;;;;;;;;;4888946;29;20180;-43
2022/09/03 09:02:54;;;;;;;4.13;3.60;;;;;;;;;;4894018;29;20273;-44
2022/09/03 09:05:24;;;;;;;4.03;3.60;;;;;;;;;;4899645;29;20172;-43
2022/09/03 09:08:01;;;;;;;6.83;3.43;;;;;;;;;;4896864;29;20211;-41
2022/09/03 09:10:37;;;;;;;4.03;3.63;;;;;;;;;;4898170;29;20399;-42
2022/09/03 09:13:17;;;;;;;5.23;3.80;;;;;;;;;;4898671;29;20713;-43
2022/09/03 09:16:02;;;;;;;6.10;4.27;;;;;;;;;;4896087;29;20187;-42
2022/09/03 09:18:35;;;;;;;7.53;4.10;;;;;;;;;;4895258;29;20188;-43
2022/09/03 09:21:20;;;;;;;6.80;5.20;;;;;;;;;;4926414;28;20184;-42
2022/09/03 09:23:47;;;;;;;7.83;5.17;;;;;;;;;;4897598;29;20219;-43
2022/09/03 09:26:15;;;;;;;6.33;4.67;;;;;;;;;;4896627;29;20516;-42
2022/09/03 09:28:43;;;;;;;5.70;4.67;;;;;;;;;;4900306;29;20636;-42
2022/09/03 09:31:11;;;;;;;6.03;5.00;;;;;;;;;;4889954;29;20184;-43
2022/09/03 09:33:38;;;;;;;7.43;5.80;;;;;;;;;;4891919;29;20188;-43
2022/09/03 09:36:18;;;;;;;6.00;5.40;;;;;;;;;;4892218;29;20176;-43
2022/09/03 09:38:45;;;;;;;9.03;6.27;;;;;;;;;;4893551;29;20176;-43
2022/09/03 09:41:15;;;;;;;10.00;5.80;;;;;;;;;;4890305;28;21206;-43
2022/09/03 09:43:44;;;;;;;8.83;5.53;;;;;;;;;;4911912;28;20688;-43
2022/09/03 09:46:20;;;;;;;7.63;5.73;;;;;;;;;;4886969;29;20239;-43
2022/09/03 09:48:50;;;;;;;8.47;6.27;;;;;;;;;;4896240;29;20502;-43
2022/09/03 09:51:21;;;;;;;6.87;5.33;;;;;;;;;;4896214;29;20755;-43
2022/09/03 09:53:48;;;;;;;9.43;5.90;;;;;;;;;;4894813;29;20569;-44
2022/09/03 09:56:25;;;;;;;8.80;5.53;;;;;;;;;;4890564;28;20250;-42
2022/09/03 09:59:02;;;;;;;7.07;5.30;;;;;;;;;;4884867;29;20617;-43
2022/09/03 10:01:30;;;;;;;8.13;4.87;;;;;;;;;;4887113;29;20650;-44
2022/09/03 10:03:58;;;;;;;6.00;4.63;;;;;;;;;;4887453;29;20176;-43
2022/09/03 10:09:10;;;;;;;6.37;4.97;;;;;;;;;;4886590;29;20204;-44
2022/09/03 10:11:38;;;;;;;6.17;4.20;;;;;;;;;;4888585;29;20672;-43
2022/09/03 10:14:08;;;;;;;6.40;4.00;;;;;;;;;;4888845;29;20613;-42
2022/09/03 10:16:37;;;;;;;5.77;4.10;;;;;;;;;;4880020;29;20327;-42
2022/09/03 10:19:03;;;;;;;5.10;3.70;;;;;;;;;;4887394;29;20475;-42
2022/09/03 10:21:35;;;;;;;7.10;3.50;;;;;;;;;;4891552;29;20176;-43
2022/09/03 10:24:20;;;;;;;5.30;3.97;;;;;;;;;;4900268;28;20191;-42
2022/09/03 10:26:46;;;;;;;7.30;3.70;;;;;;;;;;4896318;29;20736;-43
2022/09/03 10:29:17;;;;;;;7.27;3.53;;;;;;;;;;4897887;29;20172;-43
2022/09/03 10:32:08;;;;;;;6.90;3.80;;;;;;;;;;4897607;29;20238;-43
2022/09/03 10:34:38;;;;;;;9.17;4.73;;;;;;;;;;4899375;29;20180;-41
2022/09/03 10:37:07;;;;;;;7.33;3.90;;;;;;;;;;4898784;29;20196;-42
2022/09/03 10:39:42;;;;;;;5.27;3.83;;;;;;;;;;4895539;29;20195;-46
2022/09/03 10:42:25;;;;;;;6.30;3.80;;;;;;;;;;4898536;29;21437;-42
2022/09/03 10:45:08;;;;;;;6.97;3.63;;;;;;;;;;4899749;29;20184;-42
2022/09/03 10:47:37;;;;;;;5.50;3.97;;;;;;;;;;4897065;28;20234;-42
2022/09/03 10:50:03;;;;;;;7.10;4.20;;;;;;;;;;4896975;29;20187;-43
2022/09/03 10:52:29;;;;;;;5.20;4.17;;;;;;;;;;4896861;29;20248;-42
2022/09/03 10:54:56;;;;;;;4.30;3.63;;;;;;;;;;4897003;29;20770;-43
2022/09/03 10:57:40;;;;;;;4.93;3.90;;;;;;;;;;4899193;29;20196;-43
2022/09/03 11:00:11;;;;;;;5.63;4.13;;;;;;;;;;4894926;29;20239;-43
2022/09/03 11:02:47;;;;;;;7.73;4.03;;;;;;;;;;4898754;29;20472;-42
2022/09/03 11:05:23;;;;;;;5.90;3.43;;;;;;;;;;4900432;29;20728;-42
2022/09/03 11:07:50;;;;;;;6.60;3.80;;;;;;;;;;4895842;29;20180;-42
2022/09/03 11:10:27;;;;;;;8.90;4.27;;;;;;;;;;4896812;29;20184;-44
2022/09/03 11:12:55;;;;;;;6.17;3.60;;;;;;;;;;4897388;29;20176;-43
2022/09/03 11:15:53;;;;;;;7.83;3.40;;;;;;;;;;4898923;29;20188;-43
2022/09/03 11:18:28;;;;;;;5.73;3.80;;;;;;;;;;4906800;28;20212;-43
2022/09/03 11:21:00;;;;;;;4.10;3.53;;;;;;;;;;4895380;29;20180;-43
2022/09/03 11:23:27;;;;;;;6.90;4.27;;;;;;;;;;4897077;29;20191;-43
2022/09/03 11:26:00;;;;;;;4.23;3.60;;;;;;;;;;4900187;29;20455;-44
2022/09/03 11:28:35;;;;;;;5.43;3.83;;;;;;;;;;4900305;29;20211;-43
2022/09/03 11:31:01;;;;;;;8.17;3.57;;;;;;;;;;4896474;29;20310;-44
2022/09/03 11:33:28;;;;;;;4.67;3.47;;;;;;;;;;4896854;29;20180;-43
2022/09/03 11:35:56;;;;;;;8.43;3.70;;;;;;;;;;4897968;29;20725;-43
2022/09/03 11:38:27;;;;;;;7.57;3.93;;;;;;;;;;4900308;29;20184;-43
2022/09/03 11:41:01;;;;;;;5.87;3.77;;;;;;;;;;4900460;29;20183;-40
2022/09/03 11:43:32;;;;;;;6.73;3.60;;;;;;;;;;4895793;29;20238;-44
2022/09/03 11:46:10;;;;;;;5.37;3.10;;;;;;;;;;4898844;29;20183;-43
2022/09/03 11:48:38;;;;;;;4.77;2.97;;;;;;;;;;4895353;29;20286;-43
2022/09/03 11:51:16;;;;;;;4.87;3.00;;;;;;;;;;4898668;29;20288;-44
2022/09/03 11:53:53;;;;;;;4.20;2.60;;;;;;;;;;4895711;29;20226;-43
2022/09/03 11:56:19;;;;;;;7.00;3.57;;;;;;;;;;4896974;29;20211;-43
2022/09/03 11:58:46;;;;;;;4.63;2.60;;;;;;;;;;4900498;29;20617;-43
2022/09/03 12:01:13;;;;;;;5.63;3.47;;;;;;;;;;4897467;29;20176;-43
2022/09/03 12:03:40;;;;;;;4.17;3.00;;;;;;;;;;4895062;29;20791;-43
2022/09/03 12:06:21;;;;;;;3.73;2.70;;;;;;;;;;4895651;29;20566;-42
2022/09/03 12:08:56;;;;;;;5.27;3.20;;;;;;;;;;4898008;29;20188;-42
2022/09/03 12:11:35;;;;;;;4.00;3.17;;;;;;;;;;4896786;29;20468;-43
2022/09/03 12:14:06;;;;;;;5.50;3.20;;;;;;;;;;4895349;29;20498;-41
2022/09/03 12:16:46;;;;;;;6.30;2.97;;;;;;;;;;4892169;29;20550;-41
2022/09/03 12:19:22;;;;;;;5.30;3.13;;;;;;;;;;4893714;29;20263;-42
2022/09/03 12:21:49;;;;;;;3.97;2.90;;;;;;;;;;4899583;29;20195;-42
2022/09/03 12:24:16;;;;;;;5.97;3.20;;;;;;;;;;4895710;29;20636;-41
2022/09/03 12:26:42;;;;;;;4.37;3.33;;;;;;;;;;4897961;29;20546;-42
2022/09/03 12:29:39;;;;;;;3.93;3.30;;;;;;;;;;4894478;29;20255;-43
2022/09/03 12:32:06;;;;;;;6.07;2.90;;;;;;;;;;4900161;28;20237;-42
2022/09/03 12:34:33;;;;;;;6.17;3.13;;;;;;;;;;4899143;29;20195;-42
2022/09/03 12:36:59;;;;;;;5.13;3.13;;;;;;;;;;4900187;29;20551;-41
2022/09/03 12:39:26;;;;;;;3.50;3.10;;;;;;;;;;4897961;29;20267;-43
2022/09/03 12:41:55;;;;;;;3.97;3.10;;;;;;;;;;4897502;29;20199;-42
2022/09/03 12:44:28;;;;;;;3.73;3.20;;;;;;;;;;4896231;29;20715;-41
2022/09/03 12:47:20;;;;;;;5.00;3.30;;;;;;;;;;4898320;29;20255;-42
2022/09/03 12:49:48;;;;;;;7.70;3.77;;;;;;;;;;4900343;28;20196;-42
2022/09/03 12:52:17;;;;;;;3.53;3.00;;;;;;;;;;4902220;29;20759;-41
2022/09/03 12:55:05;;;;;;;4.17;2.97;;;;;;;;;;4899029;29;20498;-42
2022/09/03 12:57:34;;;;;;;4.87;3.30;;;;;;;;;;4898132;29;20203;-41
2022/09/03 13:00:03;;;;;;;5.37;3.23;;;;;;;;;;4899976;29;20493;-43
2022/09/03 13:02:36;;;;;;;6.03;2.90;;;;;;;;;;4903055;29;20278;-42
2022/09/03 13:05:03;;;;;;;4.53;2.80;;;;;;;;;;4902483;29;20207;-42
2022/09/03 13:07:32;;;;;;;3.47;2.70;;;;;;;;;;4898764;29;20463;-42
2022/09/03 13:10:05;;;;;;;3.90;2.70;;;;;;;;;;4898720;29;20195;-42
2022/09/03 13:12:42;;;;;;;3.77;2.60;;;;;;;;;;4898938;29;20210;-42
2022/09/03 13:15:10;;;;;;;5.87;3.23;;;;;;;;;;4899391;29;20555;-42
2022/09/03 13:17:51;;;;;;;7.50;2.93;;;;;;;;;;4901096;29;20210;-42
2022/09/03 13:20:24;;;;;;;3.13;2.83;;;;;;;;;;4898261;29;20859;-43
2022/09/03 13:22:59;;;;;;;5.67;3.03;;;;;;;;;;4897518;28;20999;-42
2022/09/03 13:25:28;;;;;;;5.00;2.70;;;;;;;;;;4899978;29;20363;-43
2022/09/03 13:27:54;;;;;;;4.17;2.70;;;;;;;;;;4899989;29;20681;-43
2022/09/03 13:30:30;;;;;;;5.97;3.20;;;;;;;;;;4900182;29;20190;-42
2022/09/03 13:33:01;;;;;;;3.80;2.80;;;;;;;;;;4903889;29;20171;-42
2022/09/03 13:35:31;;;;;;;3.93;2.83;;;;;;;;;;4898792;29;20676;-43
2022/09/03 13:38:14;;;;;;;8.97;2.93;;;;;;;;;;4900461;29;20220;-42
2022/09/03 13:40:53;;;;;;;3.20;2.80;;;;;;;;;;4898063;29;20223;-42
2022/09/03 13:43:22;;;;;;;4.10;2.80;;;;;;;;;;4900628;29;20179;-43
2022/09/03 13:46:07;;;;;;;4.27;2.90;;;;;;;;;;4901300;29;20598;-42
2022/09/03 13:51:29;;;;;;;3.70;2.87;;;;;;;;;;4896347;29;20195;-42
2022/09/03 13:54:10;;;;;;;4.00;2.90;;;;;;;;;;4898073;29;20188;-41
2022/09/03 13:56:42;;;;;;;4.07;3.10;;;;;;;;;;4903258;29;20200;-42
2022/09/03 13:59:28;;;;;;;4.13;3.20;;;;;;;;;;4898977;28;20179;-41
2022/09/03 14:02:00;;;;;;;5.43;2.97;;;;;;;;;;4897092;29;20188;-42
2022/09/03 14:04:45;;;;;;;3.87;3.20;;;;;;;;;;4896224;29;20304;-42
2022/09/03 14:07:15;;;;;;;5.70;3.07;;;;;;;;;;4901176;29;20249;-42
2022/09/03 14:09:59;;;;;;;6.43;3.30;;;;;;;;;;4894579;29;20431;-41
2022/09/03 14:12:34;;;;;;;4.23;2.97;;;;;;;;;;4899730;29;20185;-43
2022/09/03 14:15:03;;;;;;;5.93;3.07;;;;;;;;;;4898899;29;20216;-43
2022/09/03 14:17:48;;;;;;;6.73;3.10;;;;;;;;;;4898379;28;20963;-43
2022/09/03 14:20:20;;;;;;;4.47;2.80;;;;;;;;;;4897198;29;21008;-42
2022/09/03 14:22:52;;;;;;;3.30;2.73;;;;;;;;;;4894204;29;20638;-41
2022/09/03 14:25:22;;;;;;;5.97;2.83;;;;;;;;;;4893401;29;20608;-42
2022/09/03 14:27:49;;;;;;;3.93;2.90;;;;;;;;;;4890297;29;20176;-43
2022/09/03 14:30:15;;;;;;;3.50;2.77;;;;;;;;;;4891254;29;20937;-42
2022/09/03 14:32:42;;;;;;;6.27;3.10;;;;;;;;;;4891971;29;20200;-43
2022/09/03 14:35:11;;;;;;;5.07;3.00;;;;;;;;;;4890564;29;20507;-43
2022/09/03 14:37:50;;;;;;;3.17;2.77;;;;;;;;;;4893834;29;20550;-43
2022/09/03 14:40:25;;;;;;;3.70;2.87;;;;;;;;;;4885500;29;20179;-43
2022/09/03 14:42:51;;;;;;;2.77;2.50;;;;;;;;;;4890018;29;20359;-43
2022/09/03 14:45:35;;;;;;;3.87;3.13;;;;;;;;;;4894726;29;20424;-42
2022/09/03 14:48:09;;;;;;;4.27;2.83;;;;;;;;;;4895269;29;20188;-43
2022/09/03 14:50:54;;;;;;;3.00;2.60;;;;;;;;;;4894407;29;20177;-42
2022/09/03 14:53:33;;;;;;;7.90;3.20;;;;;;;;;;4891358;29;20180;-43
2022/09/03 14:56:26;;;;;;;3.70;2.90;;;;;;;;;;4896548;29;20701;-42
2022/09/03 14:59:10;;;;;;;5.87;2.43;;;;;;;;;;4910571;28;20424;-42
2022/09/03 15:01:36;;;;;;;4.53;3.07;;;;;;;;;;4898128;28;20740;-42
2022/09/03 15:04:21;;;;;;;4.27;2.87;;;;;;;;;;4897107;29;20755;-43
2022/09/03 15:06:47;;;;;;;5.40;2.93;;;;;;;;;;4895564;28;20183;-43
2022/09/03 15:09:13;;;;;;;4.20;2.73;;;;;;;;;;4893334;28;20598;-42
2022/09/03 15:12:02;;;;;;;5.33;2.90;;;;;;;;;;4892753;29;20256;-43